Glen Wild, New York
Current Conditions -  °F | °C
As of 4:35 PM on Thursday 18 Dec 2014 (Local Time) from KMSV Reporting Station
Overcast Overcast  
Wind Chill: 20°   Ceiling: 1100
Heat Index: 30°   Visibility: 10mi
Dew Point: 27°   Wind: 13mph
Humidity: 86%   Direction: 300°WNW
Pressure: 29.94"   Gusts: NA
Location:  41.65°N, 74.59°W
Report Text: KMSV 182135Z AUTO 30011KT 10SM OVC011 M01/M03 A2994 RMK AO1
Loading
Personal Weather Stations






























Interactive Weather Map New forecast layout! Learn more

10-Day Weather Forecast

Advertisements
Track Severe Weather on mobile